N624JX KBOS-KAPA
Flight info
| Callsign | N624JX |
|---|---|
| Flight time | 3h 53m |
| Altitude | 40000 |
| Route | BLZZR6 BLZZR BAF AUDIL/N0521F430 Q935 WOZEE FNT J36 DUTYS J16 SABBO KATES YANKI J114 SNY LANDR3 |
| Aircraft | C750/M-SBDE3FGHRWXY/S |
Departure
| Time | 2026-05-05 17:17 |
|---|---|
| Airport | Boston Logan International Airport (KBOS) |
Arrival
| Time | 2026-05-05 21:10 |
|---|---|
| Airport | Centennial Airport (KAPA) |
| Time | Latitude | Longitude | Altitude | Speed | Heading |
|---|---|---|---|---|---|
| 2026-05-05 16:43 | 42.37433 | -71.02153 | 22 ft | 0 kts | 315° |
| 2026-05-05 17:10 | 42.37452 | -71.02165 | 24 ft | 4 kts | 359° |
| 2026-05-05 17:10 | 42.37475 | -71.02142 | 22 ft | 4 kts | 43° |
| 2026-05-05 17:10 | 42.37493 | -71.02103 | 23 ft | 6 kts | 87° |
| 2026-05-05 17:10 | 42.37463 | -71.02048 | 22 ft | 9 kts | 135° |
| 2026-05-05 17:11 | 42.37407 | -71.01974 | 23 ft | 11 kts | 135° |
| 2026-05-05 17:11 | 42.37352 | -71.01899 | 22 ft | 13 kts | 135° |
| 2026-05-05 17:11 | 42.37278 | -71.01800 | 22 ft | 17 kts | 135° |
| 2026-05-05 17:11 | 42.37195 | -71.01690 | 22 ft | 16 kts | 135° |
| 2026-05-05 17:12 | 42.37122 | -71.01592 | 24 ft | 14 kts | 135° |
| 2026-05-05 17:12 | 42.37058 | -71.01506 | 22 ft | 12 kts | 135° |
| 2026-05-05 17:12 | 42.36999 | -71.01427 | 22 ft | 12 kts | 135° |
| 2026-05-05 17:12 | 42.36943 | -71.01351 | 23 ft | 11 kts | 136° |
| 2026-05-05 17:13 | 42.36891 | -71.01279 | 22 ft | 10 kts | 123° |
| 2026-05-05 17:13 | 42.36921 | -71.01184 | 23 ft | 14 kts | 41° |
| 2026-05-05 17:13 | 42.36993 | -71.01107 | 22 ft | 13 kts | 26° |
| 2026-05-05 17:13 | 42.37074 | -71.01054 | 22 ft | 15 kts | 26° |
| 2026-05-05 17:14 | 42.37174 | -71.00988 | 22 ft | 16 kts | 26° |
| 2026-05-05 17:14 | 42.37267 | -71.00928 | 22 ft | 14 kts | 26° |
| 2026-05-05 17:14 | 42.37364 | -71.00877 | 22 ft | 14 kts | 19° |
| 2026-05-05 17:14 | 42.37454 | -71.00833 | 22 ft | 14 kts | 20° |
| 2026-05-05 17:15 | 42.37559 | -71.00782 | 23 ft | 16 kts | 19° |
| 2026-05-05 17:15 | 42.37660 | -71.00733 | 22 ft | 15 kts | 20° |
| 2026-05-05 17:15 | 42.37750 | -71.00689 | 22 ft | 13 kts | 20° |
| 2026-05-05 17:15 | 42.37822 | -71.00651 | 22 ft | 9 kts | 34° |
| 2026-05-05 17:16 | 42.37833 | -71.00574 | 23 ft | 9 kts | 109° |
| 2026-05-05 17:16 | 42.37812 | -71.00495 | 23 ft | 5 kts | 110° |
| 2026-05-05 17:16 | 42.37797 | -71.00473 | 24 ft | 2 kts | 169° |
| 2026-05-05 17:16 | 42.37778 | -71.00480 | 22 ft | 6 kts | 199° |
| 2026-05-05 17:17 | 42.37455 | -71.00637 | 24 ft | 97 kts | 200° |
| 2026-05-05 17:17 | 42.36655 | -71.01027 | 116 ft | 141 kts | 199° |
| 2026-05-05 17:17 | 42.35723 | -71.01496 | 731 ft | 145 kts | 200° |
| 2026-05-05 17:17 | 42.34711 | -71.01705 | 1263 ft | 159 kts | 167° |
| 2026-05-05 17:18 | 42.33733 | -71.00907 | 1884 ft | 168 kts | 154° |
| 2026-05-05 17:18 | 42.32835 | -70.99761 | 2457 ft | 188 kts | 136° |
| 2026-05-05 17:18 | 42.31974 | -70.98309 | 3092 ft | 203 kts | 136° |
| 2026-05-05 17:18 | 42.31242 | -70.96568 | 3602 ft | 231 kts | 109° |
| 2026-05-05 17:19 | 42.31305 | -70.94293 | 4155 ft | 254 kts | 83° |
| 2026-05-05 17:19 | 42.31676 | -70.91915 | 4742 ft | 270 kts | 80° |
| 2026-05-05 17:19 | 42.32072 | -70.89361 | 5326 ft | 285 kts | 82° |
| 2026-05-05 17:19 | 42.32442 | -70.86668 | 5902 ft | 299 kts | 83° |
| 2026-05-05 17:20 | 42.32834 | -70.83798 | 6478 ft | 313 kts | 83° |
| 2026-05-05 17:20 | 42.33099 | -70.80935 | 7259 ft | 311 kts | 96° |
| 2026-05-05 17:20 | 42.32536 | -70.78139 | 8105 ft | 300 kts | 122° |
| 2026-05-05 17:20 | 42.31561 | -70.75649 | 9010 ft | 301 kts | 126° |
| 2026-05-05 17:21 | 42.30278 | -70.73508 | 9672 ft | 294 kts | 149° |
| 2026-05-05 17:21 | 42.28539 | -70.72175 | 10366 ft | 285 kts | 168° |
| 2026-05-05 17:21 | 42.26616 | -70.71769 | 10959 ft | 278 kts | 188° |
| 2026-05-05 17:22 | 42.22789 | -70.72587 | 12275 ft | 281 kts | 197° |
| 2026-05-05 17:22 | 42.21535 | -70.73119 | 12681 ft | 279 kts | 209° |
| 2026-05-05 17:22 | 42.19475 | -70.75162 | 13453 ft | 282 kts | 230° |
| 2026-05-05 17:22 | 42.18696 | -70.76623 | 13796 ft | 286 kts | 241° |
| 2026-05-05 17:23 | 42.17997 | -70.79159 | 14264 ft | 294 kts | 257° |
| 2026-05-05 17:23 | 42.17626 | -70.81902 | 14779 ft | 300 kts | 258° |
| 2026-05-05 17:23 | 42.17251 | -70.84702 | 15256 ft | 307 kts | 258° |
| 2026-05-05 17:23 | 42.16856 | -70.87570 | 15732 ft | 315 kts | 258° |
| 2026-05-05 17:24 | 42.16454 | -70.90509 | 16205 ft | 323 kts | 258° |
| 2026-05-05 17:24 | 42.16073 | -70.93530 | 16660 ft | 331 kts | 261° |
| 2026-05-05 17:24 | 42.16148 | -70.96680 | 17096 ft | 342 kts | 273° |
| 2026-05-05 17:24 | 42.16410 | -70.99895 | 17583 ft | 348 kts | 273° |
| 2026-05-05 17:25 | 42.16645 | -71.03174 | 18073 ft | 355 kts | 272° |
| 2026-05-05 17:25 | 42.16796 | -71.05382 | 18371 ft | 360 kts | 272° |
| 2026-05-05 17:25 | 42.17125 | -71.09930 | 18953 ft | 369 kts | 272° |
| 2026-05-05 17:25 | 42.17383 | -71.13397 | 19392 ft | 375 kts | 272° |
| 2026-05-05 17:26 | 42.17637 | -71.16908 | 19924 ft | 378 kts | 272° |
| 2026-05-05 17:26 | 42.17889 | -71.20454 | 20464 ft | 382 kts | 272° |
| 2026-05-05 17:26 | 42.18144 | -71.24042 | 20992 ft | 386 kts | 272° |
| 2026-05-05 17:26 | 42.18403 | -71.27667 | 21520 ft | 390 kts | 272° |
| 2026-05-05 17:27 | 42.18664 | -71.31329 | 22029 ft | 395 kts | 272° |
| 2026-05-05 17:27 | 42.18925 | -71.35031 | 22521 ft | 399 kts | 272° |
| 2026-05-05 17:27 | 42.19186 | -71.38771 | 23021 ft | 403 kts | 272° |
| 2026-05-05 17:27 | 42.19450 | -71.42550 | 23510 ft | 407 kts | 272° |
| 2026-05-05 17:28 | 42.19716 | -71.46360 | 23950 ft | 410 kts | 272° |
| 2026-05-05 17:28 | 42.19981 | -71.50201 | 24412 ft | 412 kts | 272° |
| 2026-05-05 17:28 | 42.20246 | -71.54056 | 24854 ft | 415 kts | 272° |
| 2026-05-05 17:28 | 42.20513 | -71.57942 | 25315 ft | 417 kts | 272° |
| 2026-05-05 17:29 | 42.20779 | -71.61844 | 25776 ft | 419 kts | 272° |
| 2026-05-05 17:29 | 42.21045 | -71.65772 | 26217 ft | 422 kts | 272° |
| 2026-05-05 17:29 | 42.21312 | -71.69726 | 26666 ft | 424 kts | 272° |
| 2026-05-05 17:29 | 42.21578 | -71.73701 | 27112 ft | 427 kts | 272° |
| 2026-05-05 17:30 | 42.21647 | -71.77702 | 27508 ft | 427 kts | 265° |
| 2026-05-05 17:30 | 42.21414 | -71.81702 | 27979 ft | 429 kts | 263° |
| 2026-05-05 17:30 | 42.21196 | -71.85729 | 28448 ft | 432 kts | 264° |
| 2026-05-05 17:30 | 42.20991 | -71.89784 | 28918 ft | 435 kts | 264° |
| 2026-05-05 17:31 | 42.20771 | -71.93807 | 29437 ft | 436 kts | 264° |
| 2026-05-05 17:31 | 42.20536 | -71.97890 | 29954 ft | 438 kts | 264° |
| 2026-05-05 17:31 | 42.20304 | -72.01998 | 30328 ft | 441 kts | 264° |
| 2026-05-05 17:31 | 42.20075 | -72.06139 | 30672 ft | 445 kts | 264° |
| 2026-05-05 17:32 | 42.19839 | -72.10363 | 31133 ft | 445 kts | 264° |
| 2026-05-05 17:32 | 42.19601 | -72.14509 | 31767 ft | 442 kts | 264° |
| 2026-05-05 17:32 | 42.19364 | -72.18630 | 32315 ft | 440 kts | 264° |
| 2026-05-05 17:32 | 42.19127 | -72.22745 | 32837 ft | 439 kts | 264° |
| 2026-05-05 17:33 | 42.18894 | -72.26783 | 33385 ft | 437 kts | 264° |
| 2026-05-05 17:33 | 42.18653 | -72.30906 | 34040 ft | 434 kts | 265° |
| 2026-05-05 17:33 | 42.18415 | -72.34952 | 34515 ft | 432 kts | 264° |
| 2026-05-05 17:33 | 42.18177 | -72.38986 | 35003 ft | 431 kts | 264° |
| 2026-05-05 17:34 | 42.17939 | -72.42999 | 35503 ft | 429 kts | 264° |
| 2026-05-05 17:34 | 42.17700 | -72.46993 | 36009 ft | 426 kts | 264° |
| 2026-05-05 17:34 | 42.17461 | -72.50966 | 36503 ft | 424 kts | 264° |
| 2026-05-05 17:34 | 42.17222 | -72.54921 | 36995 ft | 422 kts | 264° |
| 2026-05-05 17:35 | 42.16982 | -72.58857 | 37493 ft | 420 kts | 264° |
| 2026-05-05 17:35 | 42.16743 | -72.62772 | 38009 ft | 418 kts | 264° |
| 2026-05-05 17:35 | 42.16503 | -72.66668 | 38520 ft | 415 kts | 263° |
| 2026-05-05 17:35 | 42.16438 | -72.70559 | 38834 ft | 417 kts | 271° |
| 2026-05-05 17:36 | 42.16824 | -72.74441 | 39151 ft | 420 kts | 279° |
| 2026-05-05 17:36 | 42.17581 | -72.78248 | 39480 ft | 421 kts | 283° |
| 2026-05-05 17:36 | 42.18379 | -72.82045 | 39801 ft | 421 kts | 283° |
| 2026-05-05 17:37 | 42.19971 | -72.89793 | 39828 ft | 437 kts | 283° |
| 2026-05-05 17:37 | 42.21628 | -72.97766 | 39818 ft | 452 kts | 283° |
| 2026-05-05 17:38 | 42.23345 | -73.06123 | 39824 ft | 466 kts | 283° |
| 2026-05-05 17:38 | 42.25090 | -73.14619 | 39826 ft | 479 kts | 283° |
| 2026-05-05 17:39 | 42.26896 | -73.23465 | 39829 ft | 491 kts | 283° |
| 2026-05-05 17:39 | 42.27789 | -73.27839 | 39828 ft | 472 kts | 283° |
| 2026-05-05 17:39 | 42.28651 | -73.32070 | 39827 ft | 467 kts | 283° |
| 2026-05-05 17:40 | 42.30376 | -73.40633 | 39823 ft | 477 kts | 283° |
| 2026-05-05 17:40 | 42.32129 | -73.49296 | 39816 ft | 479 kts | 283° |
| 2026-05-05 17:41 | 42.33869 | -73.57977 | 39812 ft | 479 kts | 282° |
| 2026-05-05 17:41 | 42.35608 | -73.66669 | 39809 ft | 479 kts | 282° |
| 2026-05-05 17:42 | 42.37337 | -73.75357 | 39792 ft | 478 kts | 282° |
| 2026-05-05 17:42 | 42.39058 | -73.84041 | 39796 ft | 478 kts | 282° |
| 2026-05-05 17:43 | 42.40772 | -73.92730 | 39790 ft | 478 kts | 282° |
| 2026-05-05 17:43 | 42.42481 | -74.01431 | 39799 ft | 478 kts | 282° |
| 2026-05-05 17:44 | 42.44181 | -74.10120 | 39796 ft | 477 kts | 282° |
| 2026-05-05 17:44 | 42.45873 | -74.18811 | 39801 ft | 477 kts | 282° |
| 2026-05-05 17:45 | 42.47559 | -74.27508 | 39799 ft | 477 kts | 282° |
| 2026-05-05 17:45 | 42.49237 | -74.36203 | 39809 ft | 477 kts | 282° |
| 2026-05-05 17:46 | 42.50912 | -74.44921 | 39784 ft | 478 kts | 282° |
| 2026-05-05 17:46 | 42.52583 | -74.53653 | 39785 ft | 478 kts | 282° |
| 2026-05-05 17:47 | 42.54234 | -74.62330 | 39793 ft | 478 kts | 281° |
| 2026-05-05 17:47 | 42.55891 | -74.71068 | 39788 ft | 479 kts | 281° |
| 2026-05-05 17:48 | 42.57540 | -74.79808 | 39774 ft | 479 kts | 281° |
| 2026-05-05 17:48 | 42.59186 | -74.88568 | 39789 ft | 479 kts | 281° |
| 2026-05-05 17:49 | 42.60823 | -74.97320 | 39772 ft | 479 kts | 281° |
| 2026-05-05 17:49 | 42.62453 | -75.06082 | 39797 ft | 478 kts | 281° |
| 2026-05-05 17:50 | 42.64071 | -75.14812 | 39777 ft | 476 kts | 282° |
| 2026-05-05 17:50 | 42.65681 | -75.23545 | 39777 ft | 477 kts | 282° |
| 2026-05-05 17:51 | 42.67285 | -75.32284 | 39779 ft | 476 kts | 281° |
| 2026-05-05 17:51 | 42.68881 | -75.41019 | 39773 ft | 476 kts | 281° |
| 2026-05-05 17:52 | 42.70465 | -75.49727 | 39778 ft | 472 kts | 282° |
| 2026-05-05 17:52 | 42.72031 | -75.58376 | 39778 ft | 468 kts | 282° |
| 2026-05-05 17:53 | 42.73580 | -75.66986 | 39778 ft | 469 kts | 281° |
| 2026-05-05 17:53 | 42.75127 | -75.75605 | 39777 ft | 469 kts | 281° |
| 2026-05-05 17:54 | 42.76654 | -75.84155 | 39769 ft | 457 kts | 281° |
| 2026-05-05 17:54 | 42.78143 | -75.92541 | 40020 ft | 451 kts | 281° |
| 2026-05-05 17:54 | 42.78872 | -75.96657 | 40437 ft | 444 kts | 281° |
| 2026-05-05 17:55 | 42.79588 | -76.00707 | 40870 ft | 437 kts | 281° |
| 2026-05-05 17:55 | 42.80291 | -76.04696 | 41304 ft | 430 kts | 281° |
| 2026-05-05 17:55 | 42.80981 | -76.08625 | 41739 ft | 423 kts | 281° |
| 2026-05-05 17:55 | 42.81661 | -76.12497 | 42186 ft | 417 kts | 281° |
| 2026-05-05 17:56 | 42.82329 | -76.16309 | 42631 ft | 411 kts | 281° |
| 2026-05-05 17:56 | 42.83662 | -76.23965 | 42725 ft | 422 kts | 281° |
| 2026-05-05 17:57 | 42.85039 | -76.31873 | 42738 ft | 435 kts | 281° |
| 2026-05-05 17:57 | 42.86448 | -76.40023 | 42741 ft | 448 kts | 281° |
| 2026-05-05 17:58 | 42.87339 | -76.48494 | 42736 ft | 457 kts | 271° |
| 2026-05-05 17:58 | 42.87637 | -76.57253 | 42731 ft | 467 kts | 271° |
| 2026-05-05 17:59 | 42.87945 | -76.66085 | 42727 ft | 467 kts | 271° |
| 2026-05-05 17:59 | 42.88234 | -76.74926 | 42725 ft | 467 kts | 271° |
| 2026-05-05 18:00 | 42.88524 | -76.83769 | 42723 ft | 467 kts | 271° |
| 2026-05-05 18:00 | 42.88803 | -76.92616 | 42742 ft | 466 kts | 271° |
| 2026-05-05 18:01 | 42.89078 | -77.01457 | 42755 ft | 467 kts | 271° |
| 2026-05-05 18:01 | 42.89344 | -77.10307 | 42763 ft | 467 kts | 271° |
| 2026-05-05 18:02 | 42.89608 | -77.19159 | 42777 ft | 467 kts | 271° |
| 2026-05-05 18:02 | 42.89887 | -77.28006 | 42775 ft | 466 kts | 271° |
| 2026-05-05 18:03 | 42.90148 | -77.36835 | 42775 ft | 466 kts | 271° |
| 2026-05-05 18:03 | 42.90405 | -77.45603 | 42775 ft | 466 kts | 271° |
| 2026-05-05 18:04 | 42.90655 | -77.54437 | 42775 ft | 466 kts | 271° |
| 2026-05-05 18:04 | 42.90861 | -77.61844 | 42767 ft | 467 kts | 270° |
| 2026-05-05 18:05 | 42.91100 | -77.70696 | 42769 ft | 467 kts | 270° |
| 2026-05-05 18:05 | 42.91332 | -77.79549 | 42769 ft | 467 kts | 270° |
| 2026-05-05 18:06 | 42.91557 | -77.88401 | 42778 ft | 467 kts | 270° |
| 2026-05-05 18:06 | 42.91775 | -77.97255 | 42784 ft | 467 kts | 270° |
| 2026-05-05 18:07 | 42.91988 | -78.06149 | 42787 ft | 469 kts | 270° |
| 2026-05-05 18:07 | 42.92193 | -78.14990 | 42791 ft | 469 kts | 270° |
| 2026-05-05 18:08 | 42.92391 | -78.23894 | 42791 ft | 469 kts | 270° |
| 2026-05-05 18:08 | 42.92584 | -78.32797 | 42790 ft | 469 kts | 270° |
| 2026-05-05 18:09 | 42.92769 | -78.41702 | 42785 ft | 469 kts | 270° |
| 2026-05-05 18:09 | 42.92947 | -78.50601 | 42784 ft | 469 kts | 270° |
| 2026-05-05 18:10 | 42.93118 | -78.59505 | 42775 ft | 469 kts | 270° |
| 2026-05-05 18:10 | 42.93282 | -78.68405 | 42774 ft | 469 kts | 270° |
| 2026-05-05 18:11 | 42.93451 | -78.77353 | 42766 ft | 473 kts | 270° |
| 2026-05-05 18:11 | 42.93741 | -78.86317 | 42768 ft | 473 kts | 271° |
| 2026-05-05 18:12 | 42.93961 | -78.95287 | 42765 ft | 473 kts | 270° |
| 2026-05-05 18:12 | 42.94206 | -79.04251 | 42756 ft | 473 kts | 271° |
| 2026-05-05 18:13 | 42.94429 | -79.13239 | 42763 ft | 474 kts | 270° |
| 2026-05-05 18:13 | 42.94652 | -79.22236 | 42765 ft | 474 kts | 270° |
| 2026-05-05 18:14 | 42.94866 | -79.31231 | 42765 ft | 474 kts | 270° |
| 2026-05-05 18:14 | 42.95073 | -79.40228 | 42766 ft | 474 kts | 270° |
| 2026-05-05 18:15 | 42.95272 | -79.49225 | 42754 ft | 474 kts | 270° |
| 2026-05-05 18:15 | 42.95466 | -79.58209 | 42757 ft | 474 kts | 270° |
| 2026-05-05 18:16 | 42.95651 | -79.67193 | 42759 ft | 473 kts | 270° |
| 2026-05-05 18:16 | 42.95830 | -79.76170 | 42766 ft | 473 kts | 270° |
| 2026-05-05 18:17 | 42.96001 | -79.85154 | 42778 ft | 473 kts | 270° |
| 2026-05-05 18:17 | 42.96165 | -79.94132 | 42770 ft | 473 kts | 270° |
| 2026-05-05 18:18 | 42.96323 | -80.03112 | 42766 ft | 473 kts | 270° |
| 2026-05-05 18:18 | 42.96472 | -80.12024 | 42767 ft | 473 kts | 270° |
| 2026-05-05 18:19 | 42.96615 | -80.20996 | 42778 ft | 472 kts | 271° |
| 2026-05-05 18:19 | 42.96751 | -80.29930 | 42775 ft | 471 kts | 270° |
| 2026-05-05 18:20 | 42.96880 | -80.38871 | 42782 ft | 471 kts | 270° |
| 2026-05-05 18:20 | 42.97001 | -80.47805 | 42787 ft | 471 kts | 270° |
| 2026-05-05 18:21 | 42.97116 | -80.56743 | 42785 ft | 470 kts | 270° |
| 2026-05-05 18:21 | 42.97224 | -80.65650 | 42789 ft | 469 kts | 270° |
| 2026-05-05 18:22 | 42.97324 | -80.74560 | 42793 ft | 469 kts | 270° |
| 2026-05-05 18:22 | 42.97418 | -80.83466 | 42805 ft | 469 kts | 270° |
| 2026-05-05 18:23 | 42.97505 | -80.92373 | 42819 ft | 469 kts | 270° |
| 2026-05-05 18:23 | 42.97585 | -81.01225 | 42812 ft | 465 kts | 270° |
| 2026-05-05 18:24 | 42.97657 | -81.10065 | 42813 ft | 466 kts | 270° |
| 2026-05-05 18:24 | 42.97723 | -81.18909 | 42814 ft | 466 kts | 270° |
| 2026-05-05 18:25 | 42.97781 | -81.27754 | 42814 ft | 466 kts | 270° |
| 2026-05-05 18:25 | 42.97833 | -81.36564 | 42819 ft | 462 kts | 270° |
| 2026-05-05 18:26 | 42.97879 | -81.45353 | 42820 ft | 463 kts | 270° |
| 2026-05-05 18:26 | 42.97917 | -81.54146 | 42816 ft | 463 kts | 270° |
| 2026-05-05 18:27 | 42.97948 | -81.62935 | 42817 ft | 463 kts | 270° |
| 2026-05-05 18:27 | 42.97973 | -81.71709 | 42824 ft | 459 kts | 270° |
| 2026-05-05 18:28 | 42.97998 | -81.84793 | 42824 ft | 460 kts | 270° |
| 2026-05-05 18:28 | 42.98006 | -81.93524 | 42824 ft | 460 kts | 270° |
| 2026-05-05 18:29 | 42.98008 | -82.02250 | 42827 ft | 460 kts | 270° |
| 2026-05-05 18:29 | 42.98003 | -82.10983 | 42829 ft | 460 kts | 270° |
| 2026-05-05 18:30 | 42.97991 | -82.19713 | 42824 ft | 459 kts | 270° |
| 2026-05-05 18:30 | 42.97972 | -82.28437 | 42824 ft | 460 kts | 270° |
| 2026-05-05 18:31 | 42.97947 | -82.37168 | 42827 ft | 460 kts | 270° |
| 2026-05-05 18:31 | 42.97916 | -82.45888 | 42812 ft | 458 kts | 270° |
| 2026-05-05 18:32 | 42.97878 | -82.54592 | 42827 ft | 459 kts | 270° |
| 2026-05-05 18:32 | 42.97833 | -82.63302 | 42826 ft | 459 kts | 270° |
| 2026-05-05 18:33 | 42.97782 | -82.72013 | 42819 ft | 459 kts | 270° |
| 2026-05-05 18:33 | 42.97724 | -82.80719 | 42823 ft | 458 kts | 270° |
| 2026-05-05 18:34 | 42.97659 | -82.89381 | 42814 ft | 456 kts | 270° |
| 2026-05-05 18:34 | 42.97589 | -82.98036 | 42809 ft | 456 kts | 270° |
| 2026-05-05 18:35 | 42.97511 | -83.06695 | 42806 ft | 456 kts | 270° |
| 2026-05-05 18:35 | 42.97427 | -83.15358 | 42808 ft | 456 kts | 270° |
| 2026-05-05 18:36 | 42.97337 | -83.23986 | 42806 ft | 453 kts | 269° |
| 2026-05-05 18:36 | 42.97241 | -83.32590 | 42805 ft | 454 kts | 269° |
| 2026-05-05 18:37 | 42.97138 | -83.41207 | 42807 ft | 454 kts | 269° |
| 2026-05-05 18:37 | 42.97029 | -83.49818 | 42810 ft | 454 kts | 269° |
| 2026-05-05 18:38 | 42.96914 | -83.58421 | 42817 ft | 452 kts | 269° |
| 2026-05-05 18:38 | 42.96792 | -83.67009 | 42817 ft | 452 kts | 269° |
| 2026-05-05 18:39 | 42.96804 | -83.75533 | 42805 ft | 452 kts | 274° |
| 2026-05-05 18:39 | 42.97649 | -83.84043 | 42817 ft | 453 kts | 277° |
| 2026-05-05 18:40 | 42.98498 | -83.92557 | 42819 ft | 453 kts | 277° |
| 2026-05-05 18:40 | 42.99368 | -84.01068 | 42840 ft | 452 kts | 277° |
| 2026-05-05 18:41 | 43.00216 | -84.09580 | 42840 ft | 452 kts | 277° |
| 2026-05-05 18:41 | 43.01067 | -84.18093 | 42839 ft | 452 kts | 277° |
| 2026-05-05 18:42 | 43.01906 | -84.26606 | 42839 ft | 452 kts | 277° |
| 2026-05-05 18:42 | 43.02742 | -84.35125 | 42833 ft | 452 kts | 277° |
| 2026-05-05 18:43 | 43.03570 | -84.43644 | 42817 ft | 452 kts | 277° |
| 2026-05-05 18:43 | 43.04392 | -84.52163 | 42814 ft | 452 kts | 277° |
| 2026-05-05 18:44 | 43.05207 | -84.60683 | 42817 ft | 452 kts | 276° |
| 2026-05-05 18:44 | 43.06017 | -84.69212 | 42824 ft | 452 kts | 276° |
| 2026-05-05 18:45 | 43.06818 | -84.77718 | 42827 ft | 451 kts | 276° |
| 2026-05-05 18:45 | 43.07613 | -84.86238 | 42817 ft | 451 kts | 276° |
| 2026-05-05 18:46 | 43.08402 | -84.94753 | 42817 ft | 451 kts | 276° |
| 2026-05-05 18:46 | 43.09185 | -85.03273 | 42821 ft | 451 kts | 276° |
| 2026-05-05 18:47 | 43.09960 | -85.11783 | 42823 ft | 450 kts | 276° |
| 2026-05-05 18:47 | 43.10729 | -85.20292 | 42827 ft | 451 kts | 276° |
| 2026-05-05 18:48 | 43.11491 | -85.28802 | 42830 ft | 451 kts | 276° |
| 2026-05-05 18:48 | 43.12120 | -85.35878 | 42831 ft | 451 kts | 276° |
| 2026-05-05 18:49 | 43.12870 | -85.44388 | 42835 ft | 450 kts | 276° |
| 2026-05-05 18:49 | 43.13612 | -85.52871 | 42834 ft | 449 kts | 276° |
| 2026-05-05 18:50 | 43.14347 | -85.61351 | 42838 ft | 449 kts | 276° |
| 2026-05-05 18:50 | 43.15077 | -85.69851 | 42831 ft | 450 kts | 276° |
| 2026-05-05 18:51 | 43.15801 | -85.78354 | 42843 ft | 449 kts | 276° |
| 2026-05-05 18:51 | 43.16519 | -85.86860 | 42853 ft | 450 kts | 276° |
| 2026-05-05 18:52 | 43.17230 | -85.95370 | 42870 ft | 450 kts | 276° |
| 2026-05-05 18:52 | 43.17935 | -86.03879 | 42877 ft | 450 kts | 275° |
| 2026-05-05 18:53 | 43.18634 | -86.12392 | 42871 ft | 449 kts | 275° |
| 2026-05-05 18:53 | 43.19327 | -86.20906 | 42872 ft | 450 kts | 275° |
| 2026-05-05 18:54 | 43.19775 | -86.29455 | 42841 ft | 450 kts | 269° |
| 2026-05-05 18:54 | 43.19490 | -86.38022 | 42860 ft | 450 kts | 268° |
| 2026-05-05 18:55 | 43.19224 | -86.46538 | 42868 ft | 450 kts | 268° |
| 2026-05-05 18:55 | 43.18925 | -86.55103 | 42877 ft | 450 kts | 268° |
| 2026-05-05 18:56 | 43.18634 | -86.63677 | 42869 ft | 450 kts | 268° |
| 2026-05-05 18:56 | 43.18329 | -86.72244 | 42868 ft | 450 kts | 268° |
| 2026-05-05 18:57 | 43.18019 | -86.80846 | 42875 ft | 448 kts | 268° |
| 2026-05-05 18:57 | 43.17705 | -86.89367 | 42874 ft | 448 kts | 268° |
| 2026-05-05 18:58 | 43.17385 | -86.97892 | 42878 ft | 447 kts | 268° |
| 2026-05-05 18:58 | 43.17060 | -87.06373 | 42872 ft | 446 kts | 268° |
| 2026-05-05 18:59 | 43.16729 | -87.14856 | 42875 ft | 446 kts | 268° |
| 2026-05-05 18:59 | 43.16391 | -87.23342 | 42875 ft | 446 kts | 268° |
| 2026-05-05 19:00 | 43.16047 | -87.31828 | 42875 ft | 446 kts | 268° |
| 2026-05-05 19:00 | 43.15700 | -87.40252 | 42876 ft | 446 kts | 268° |
| 2026-05-05 19:01 | 43.15341 | -87.48787 | 42865 ft | 446 kts | 267° |
| 2026-05-05 19:01 | 43.14978 | -87.57268 | 42857 ft | 446 kts | 267° |
| 2026-05-05 19:02 | 43.14612 | -87.65694 | 42858 ft | 446 kts | 267° |
| 2026-05-05 19:02 | 43.14234 | -87.74233 | 42860 ft | 448 kts | 267° |
| 2026-05-05 19:03 | 43.13851 | -87.82728 | 42859 ft | 447 kts | 267° |
| 2026-05-05 19:03 | 43.13463 | -87.91226 | 42867 ft | 447 kts | 267° |
| 2026-05-05 19:04 | 43.13070 | -87.99664 | 42881 ft | 447 kts | 267° |
| 2026-05-05 19:04 | 43.12669 | -88.08156 | 42882 ft | 447 kts | 267° |
| 2026-05-05 19:05 | 43.12263 | -88.16625 | 42871 ft | 445 kts | 267° |
| 2026-05-05 19:05 | 43.11852 | -88.25073 | 42873 ft | 445 kts | 267° |
| 2026-05-05 19:06 | 43.11786 | -88.33533 | 42868 ft | 445 kts | 272° |
| 2026-05-05 19:06 | 43.11914 | -88.42001 | 42875 ft | 445 kts | 271° |
| 2026-05-05 19:07 | 43.12055 | -88.50462 | 42849 ft | 443 kts | 271° |
| 2026-05-05 19:07 | 43.12184 | -88.58939 | 42848 ft | 443 kts | 271° |
| 2026-05-05 19:08 | 43.12307 | -88.67363 | 42853 ft | 443 kts | 271° |
| 2026-05-05 19:08 | 43.12425 | -88.75787 | 42854 ft | 443 kts | 271° |
| 2026-05-05 19:09 | 43.12536 | -88.84214 | 42857 ft | 443 kts | 271° |
| 2026-05-05 19:09 | 43.12641 | -88.92633 | 42852 ft | 441 kts | 271° |
| 2026-05-05 19:10 | 43.12739 | -89.01042 | 42858 ft | 442 kts | 271° |
| 2026-05-05 19:10 | 43.12831 | -89.09398 | 42874 ft | 442 kts | 271° |
| 2026-05-05 19:11 | 43.12917 | -89.17865 | 42880 ft | 442 kts | 271° |
| 2026-05-05 19:11 | 43.12998 | -89.26276 | 42873 ft | 441 kts | 271° |
| 2026-05-05 19:12 | 43.13071 | -89.34659 | 42871 ft | 441 kts | 271° |
| 2026-05-05 19:12 | 43.13138 | -89.42995 | 42871 ft | 441 kts | 270° |
| 2026-05-05 19:13 | 43.13199 | -89.51438 | 42870 ft | 441 kts | 270° |
| 2026-05-05 19:13 | 43.13254 | -89.59828 | 42870 ft | 441 kts | 270° |
| 2026-05-05 19:14 | 43.13303 | -89.68220 | 42864 ft | 441 kts | 270° |
| 2026-05-05 19:14 | 43.13345 | -89.76604 | 42861 ft | 440 kts | 270° |
| 2026-05-05 19:15 | 43.13381 | -89.84987 | 42862 ft | 441 kts | 270° |
| 2026-05-05 19:15 | 43.13412 | -89.93377 | 42862 ft | 441 kts | 270° |
| 2026-05-05 19:16 | 43.13436 | -90.01764 | 42884 ft | 441 kts | 270° |
| 2026-05-05 19:16 | 43.13454 | -90.10159 | 42892 ft | 441 kts | 270° |
| 2026-05-05 19:17 | 43.13466 | -90.18554 | 42895 ft | 441 kts | 270° |
| 2026-05-05 19:17 | 43.13472 | -90.26953 | 42892 ft | 441 kts | 270° |
| 2026-05-05 19:18 | 43.13471 | -90.35296 | 42888 ft | 441 kts | 270° |
| 2026-05-05 19:18 | 43.13464 | -90.43752 | 42913 ft | 442 kts | 270° |
| 2026-05-05 19:19 | 43.13452 | -90.52167 | 42924 ft | 442 kts | 270° |
| 2026-05-05 19:19 | 43.13432 | -90.60577 | 42926 ft | 442 kts | 270° |
| 2026-05-05 19:20 | 43.13408 | -90.68987 | 42925 ft | 441 kts | 270° |
| 2026-05-05 19:20 | 43.13376 | -90.77396 | 42921 ft | 442 kts | 270° |
| 2026-05-05 19:21 | 43.13338 | -90.85810 | 42918 ft | 442 kts | 270° |
| 2026-05-05 19:21 | 43.13295 | -90.94221 | 42917 ft | 442 kts | 270° |
| 2026-05-05 19:22 | 43.13244 | -91.02646 | 42918 ft | 442 kts | 269° |
| 2026-05-05 19:22 | 43.13189 | -91.11063 | 42912 ft | 442 kts | 269° |
| 2026-05-05 19:23 | 43.12942 | -91.19472 | 42923 ft | 443 kts | 264° |
| 2026-05-05 19:23 | 43.12255 | -91.27860 | 42929 ft | 443 kts | 265° |
| 2026-05-05 19:24 | 43.11584 | -91.36233 | 42929 ft | 443 kts | 264° |
| 2026-05-05 19:24 | 43.10892 | -91.44551 | 42928 ft | 443 kts | 264° |
| 2026-05-05 19:25 | 43.10203 | -91.52928 | 42928 ft | 443 kts | 264° |
| 2026-05-05 19:25 | 43.09499 | -91.61303 | 42930 ft | 443 kts | 264° |
| 2026-05-05 19:26 | 43.08794 | -91.69677 | 42921 ft | 443 kts | 264° |
| 2026-05-05 19:26 | 43.08080 | -91.78050 | 42922 ft | 443 kts | 264° |
| 2026-05-05 19:27 | 43.07361 | -91.86420 | 42927 ft | 443 kts | 264° |
| 2026-05-05 19:27 | 43.06637 | -91.94783 | 42928 ft | 443 kts | 264° |
| 2026-05-05 19:28 | 43.05906 | -92.03142 | 42932 ft | 443 kts | 264° |
| 2026-05-05 19:28 | 43.05169 | -92.11502 | 42932 ft | 443 kts | 264° |
| 2026-05-05 19:29 | 43.04426 | -92.19853 | 42938 ft | 443 kts | 264° |
| 2026-05-05 19:29 | 43.03678 | -92.28204 | 42939 ft | 443 kts | 264° |
| 2026-05-05 19:30 | 43.03046 | -92.35196 | 42938 ft | 442 kts | 264° |
| 2026-05-05 19:30 | 43.02287 | -92.43536 | 42937 ft | 442 kts | 264° |
| 2026-05-05 19:31 | 43.01522 | -92.51870 | 42938 ft | 442 kts | 264° |
| 2026-05-05 19:31 | 43.00756 | -92.60145 | 42940 ft | 442 kts | 263° |
| 2026-05-05 19:32 | 42.99980 | -92.68472 | 42928 ft | 442 kts | 263° |
| 2026-05-05 19:32 | 42.99196 | -92.76807 | 42927 ft | 442 kts | 263° |
| 2026-05-05 19:33 | 42.98408 | -92.85128 | 42919 ft | 440 kts | 263° |
| 2026-05-05 19:33 | 42.97619 | -92.93386 | 42921 ft | 438 kts | 263° |
| 2026-05-05 19:34 | 42.96825 | -93.01634 | 42925 ft | 438 kts | 263° |
| 2026-05-05 19:35 | 42.95623 | -93.13999 | 42926 ft | 438 kts | 263° |
| 2026-05-05 19:35 | 42.94815 | -93.22234 | 42927 ft | 438 kts | 263° |
| 2026-05-05 19:36 | 42.94002 | -93.30463 | 42929 ft | 438 kts | 263° |
| 2026-05-05 19:36 | 42.93182 | -93.38693 | 42929 ft | 438 kts | 263° |
| 2026-05-05 19:37 | 42.92356 | -93.46920 | 42926 ft | 437 kts | 263° |
| 2026-05-05 19:37 | 42.91526 | -93.55138 | 42933 ft | 437 kts | 263° |
| 2026-05-05 19:38 | 42.90689 | -93.63356 | 42934 ft | 438 kts | 263° |
| 2026-05-05 19:38 | 42.89846 | -93.71578 | 42934 ft | 438 kts | 263° |
| 2026-05-05 19:39 | 42.88996 | -93.79796 | 42939 ft | 438 kts | 262° |
| 2026-05-05 19:39 | 42.88141 | -93.88023 | 42941 ft | 439 kts | 262° |
| 2026-05-05 19:40 | 42.87278 | -93.96251 | 42942 ft | 438 kts | 262° |
| 2026-05-05 19:40 | 42.86410 | -94.04475 | 42946 ft | 438 kts | 262° |
| 2026-05-05 19:41 | 42.85536 | -94.12698 | 42950 ft | 438 kts | 262° |
| 2026-05-05 19:41 | 42.84662 | -94.20867 | 42950 ft | 438 kts | 262° |
| 2026-05-05 19:42 | 42.83773 | -94.29114 | 42955 ft | 440 kts | 262° |
| 2026-05-05 19:42 | 42.82879 | -94.37354 | 42956 ft | 440 kts | 262° |
| 2026-05-05 19:43 | 42.81978 | -94.45595 | 42956 ft | 440 kts | 262° |
| 2026-05-05 19:43 | 42.81071 | -94.53834 | 42959 ft | 440 kts | 262° |
| 2026-05-05 19:44 | 42.80157 | -94.62083 | 42958 ft | 442 kts | 262° |
| 2026-05-05 19:44 | 42.79234 | -94.70360 | 42959 ft | 442 kts | 262° |
| 2026-05-05 19:45 | 42.78306 | -94.78628 | 42962 ft | 442 kts | 262° |
| 2026-05-05 19:45 | 42.77372 | -94.86892 | 42962 ft | 442 kts | 262° |
| 2026-05-05 19:46 | 42.76432 | -94.95152 | 42965 ft | 442 kts | 262° |
| 2026-05-05 19:46 | 42.75483 | -95.03436 | 42969 ft | 444 kts | 262° |
| 2026-05-05 19:47 | 42.74528 | -95.11719 | 42969 ft | 443 kts | 261° |
| 2026-05-05 19:47 | 42.73566 | -95.20004 | 42971 ft | 443 kts | 261° |
| 2026-05-05 19:48 | 42.72599 | -95.28285 | 42971 ft | 443 kts | 261° |
| 2026-05-05 19:48 | 42.71626 | -95.36565 | 42980 ft | 444 kts | 261° |
| 2026-05-05 19:49 | 42.70644 | -95.44859 | 42980 ft | 444 kts | 261° |
| 2026-05-05 19:49 | 42.69664 | -95.53094 | 42981 ft | 444 kts | 261° |
| 2026-05-05 19:50 | 42.68670 | -95.61384 | 42980 ft | 444 kts | 261° |
| 2026-05-05 19:50 | 42.67671 | -95.69665 | 42984 ft | 444 kts | 261° |
| 2026-05-05 19:51 | 42.66666 | -95.77949 | 42975 ft | 444 kts | 261° |
| 2026-05-05 19:51 | 42.65654 | -95.86233 | 42981 ft | 444 kts | 261° |
| 2026-05-05 19:52 | 42.64637 | -95.94510 | 42985 ft | 444 kts | 261° |
| 2026-05-05 19:52 | 42.63614 | -96.02783 | 42984 ft | 444 kts | 261° |
| 2026-05-05 19:53 | 42.62585 | -96.11057 | 42985 ft | 444 kts | 261° |
| 2026-05-05 19:53 | 42.61549 | -96.19339 | 42986 ft | 445 kts | 261° |
| 2026-05-05 19:54 | 42.60506 | -96.27619 | 42986 ft | 445 kts | 261° |
| 2026-05-05 19:54 | 42.59457 | -96.35896 | 42993 ft | 445 kts | 261° |
| 2026-05-05 19:55 | 42.58402 | -96.44172 | 42996 ft | 445 kts | 261° |
| 2026-05-05 19:55 | 42.57342 | -96.52444 | 42999 ft | 445 kts | 261° |
| 2026-05-05 19:56 | 42.56275 | -96.60716 | 43013 ft | 445 kts | 261° |
| 2026-05-05 19:56 | 42.55202 | -96.68987 | 43012 ft | 445 kts | 261° |
| 2026-05-05 19:57 | 42.54075 | -96.77240 | 43008 ft | 445 kts | 257° |
| 2026-05-05 19:57 | 42.52240 | -96.85273 | 43025 ft | 447 kts | 254° |
| 2026-05-05 19:58 | 42.50357 | -96.93327 | 43032 ft | 448 kts | 254° |
| 2026-05-05 19:58 | 42.48446 | -97.01355 | 43036 ft | 448 kts | 253° |
| 2026-05-05 19:59 | 42.46540 | -97.09391 | 43033 ft | 448 kts | 253° |
| 2026-05-05 19:59 | 42.44624 | -97.17414 | 43037 ft | 448 kts | 253° |
| 2026-05-05 20:00 | 42.42718 | -97.25379 | 43037 ft | 447 kts | 253° |
| 2026-05-05 20:00 | 42.40793 | -97.33389 | 43044 ft | 448 kts | 253° |
| 2026-05-05 20:01 | 42.38863 | -97.41394 | 43049 ft | 448 kts | 253° |
| 2026-05-05 20:01 | 42.36927 | -97.49396 | 43023 ft | 448 kts | 253° |
| 2026-05-05 20:02 | 42.34994 | -97.57353 | 43041 ft | 444 kts | 253° |
| 2026-05-05 20:02 | 42.33058 | -97.65305 | 43039 ft | 446 kts | 253° |
| 2026-05-05 20:03 | 42.31111 | -97.73265 | 43043 ft | 446 kts | 253° |
| 2026-05-05 20:03 | 42.29160 | -97.81218 | 43049 ft | 446 kts | 253° |
| 2026-05-05 20:04 | 42.27205 | -97.89163 | 43049 ft | 446 kts | 253° |
| 2026-05-05 20:04 | 42.25243 | -97.97104 | 43048 ft | 446 kts | 253° |
| 2026-05-05 20:05 | 42.23269 | -98.05069 | 43055 ft | 448 kts | 253° |
| 2026-05-05 20:05 | 42.21289 | -98.13031 | 43052 ft | 448 kts | 253° |
| 2026-05-05 20:06 | 42.19304 | -98.20985 | 43057 ft | 448 kts | 253° |
| 2026-05-05 20:06 | 42.17312 | -98.28938 | 43051 ft | 448 kts | 253° |
| 2026-05-05 20:07 | 42.15316 | -98.36886 | 43045 ft | 448 kts | 253° |
| 2026-05-05 20:07 | 42.13311 | -98.44839 | 43043 ft | 448 kts | 253° |
| 2026-05-05 20:08 | 42.11300 | -98.52787 | 43037 ft | 448 kts | 253° |
| 2026-05-05 20:08 | 42.09284 | -98.60731 | 43038 ft | 448 kts | 253° |
| 2026-05-05 20:09 | 42.07264 | -98.68664 | 43047 ft | 446 kts | 253° |
| 2026-05-05 20:09 | 42.05248 | -98.76553 | 43037 ft | 446 kts | 252° |
| 2026-05-05 20:10 | 42.03225 | -98.84446 | 43029 ft | 446 kts | 252° |
| 2026-05-05 20:10 | 42.01197 | -98.92334 | 43027 ft | 446 kts | 252° |
| 2026-05-05 20:11 | 41.99176 | -99.00165 | 43034 ft | 446 kts | 252° |
| 2026-05-05 20:11 | 41.97137 | -99.08042 | 43029 ft | 446 kts | 252° |
| 2026-05-05 20:12 | 41.95085 | -99.15939 | 43041 ft | 448 kts | 252° |
| 2026-05-05 20:12 | 41.93028 | -99.23835 | 43050 ft | 448 kts | 252° |
| 2026-05-05 20:13 | 41.90964 | -99.31729 | 43038 ft | 448 kts | 252° |
| 2026-05-05 20:13 | 41.88895 | -99.39617 | 43040 ft | 448 kts | 252° |
| 2026-05-05 20:14 | 41.86821 | -99.47500 | 43038 ft | 448 kts | 252° |
| 2026-05-05 20:14 | 41.84738 | -99.55389 | 43030 ft | 449 kts | 252° |
| 2026-05-05 20:15 | 41.82648 | -99.63278 | 43027 ft | 449 kts | 252° |
| 2026-05-05 20:15 | 41.80554 | -99.71160 | 43027 ft | 449 kts | 252° |
| 2026-05-05 20:16 | 41.78455 | -99.79035 | 43033 ft | 449 kts | 252° |
| 2026-05-05 20:16 | 41.76353 | -99.86891 | 43023 ft | 448 kts | 252° |
| 2026-05-05 20:17 | 41.74603 | -99.93418 | 43025 ft | 448 kts | 252° |
| 2026-05-05 20:17 | 41.72492 | -100.01267 | 43026 ft | 448 kts | 252° |
| 2026-05-05 20:18 | 41.70374 | -100.09113 | 43024 ft | 448 kts | 252° |
| 2026-05-05 20:18 | 41.68251 | -100.16955 | 43024 ft | 448 kts | 252° |
| 2026-05-05 20:19 | 41.66120 | -100.24802 | 43027 ft | 450 kts | 252° |
| 2026-05-05 20:19 | 41.63981 | -100.32654 | 43028 ft | 449 kts | 252° |
| 2026-05-05 20:20 | 41.61837 | -100.40498 | 43026 ft | 449 kts | 251° |
| 2026-05-05 20:20 | 41.59688 | -100.48337 | 43025 ft | 449 kts | 251° |
| 2026-05-05 20:21 | 41.57533 | -100.56173 | 43028 ft | 449 kts | 251° |
| 2026-05-05 20:21 | 41.55371 | -100.64009 | 43018 ft | 450 kts | 251° |
| 2026-05-05 20:22 | 41.53204 | -100.71848 | 43019 ft | 450 kts | 252° |
| 2026-05-05 20:22 | 41.51601 | -100.79896 | 43024 ft | 449 kts | 257° |
| 2026-05-05 20:23 | 41.50113 | -100.87987 | 43034 ft | 449 kts | 257° |
| 2026-05-05 20:23 | 41.48644 | -100.96082 | 43036 ft | 449 kts | 257° |
| 2026-05-05 20:24 | 41.47159 | -101.04169 | 43037 ft | 449 kts | 257° |
| 2026-05-05 20:24 | 41.45671 | -101.12260 | 43037 ft | 449 kts | 257° |
| 2026-05-05 20:25 | 41.44178 | -101.20341 | 43034 ft | 449 kts | 257° |
| 2026-05-05 20:25 | 41.42680 | -101.28409 | 43025 ft | 448 kts | 257° |
| 2026-05-05 20:26 | 41.41177 | -101.36474 | 43029 ft | 450 kts | 257° |
| 2026-05-05 20:26 | 41.39665 | -101.44552 | 43029 ft | 449 kts | 257° |
| 2026-05-05 20:27 | 41.38157 | -101.52575 | 43027 ft | 449 kts | 257° |
| 2026-05-05 20:27 | 41.36633 | -101.60646 | 43032 ft | 449 kts | 257° |
| 2026-05-05 20:28 | 41.35096 | -101.68762 | 43025 ft | 449 kts | 256° |
| 2026-05-05 20:28 | 41.33558 | -101.76839 | 43033 ft | 450 kts | 256° |
| 2026-05-05 20:29 | 41.32016 | -101.84907 | 43035 ft | 450 kts | 256° |
| 2026-05-05 20:29 | 41.30469 | -101.92970 | 43035 ft | 450 kts | 256° |
| 2026-05-05 20:30 | 41.28926 | -102.00978 | 43034 ft | 450 kts | 256° |
| 2026-05-05 20:30 | 41.27364 | -102.09049 | 43048 ft | 451 kts | 256° |
| 2026-05-05 20:31 | 41.25797 | -102.17118 | 43050 ft | 451 kts | 256° |
| 2026-05-05 20:31 | 41.24222 | -102.25190 | 43041 ft | 451 kts | 256° |
| 2026-05-05 20:32 | 41.22643 | -102.33256 | 43044 ft | 451 kts | 256° |
| 2026-05-05 20:32 | 41.21057 | -102.41318 | 43033 ft | 451 kts | 256° |
| 2026-05-05 20:33 | 41.19465 | -102.49384 | 43016 ft | 452 kts | 256° |
| 2026-05-05 20:33 | 41.17865 | -102.57452 | 43021 ft | 452 kts | 256° |
| 2026-05-05 20:33 | 41.17063 | -102.61483 | 42858 ft | 450 kts | 256° |
| 2026-05-05 20:34 | 41.16266 | -102.65487 | 42239 ft | 446 kts | 256° |
| 2026-05-05 20:34 | 41.15475 | -102.69447 | 41659 ft | 442 kts | 256° |
| 2026-05-05 20:34 | 41.14690 | -102.73376 | 41086 ft | 439 kts | 256° |
| 2026-05-05 20:34 | 41.13908 | -102.77277 | 40504 ft | 437 kts | 255° |
| 2026-05-05 20:35 | 41.13127 | -102.81167 | 39940 ft | 437 kts | 255° |
| 2026-05-05 20:35 | 41.12345 | -102.85052 | 39369 ft | 435 kts | 255° |
| 2026-05-05 20:35 | 41.11566 | -102.88918 | 38799 ft | 432 kts | 255° |
| 2026-05-05 20:35 | 41.10636 | -102.92703 | 38177 ft | 431 kts | 250° |
| 2026-05-05 20:36 | 41.09414 | -102.96341 | 37610 ft | 435 kts | 245° |
| 2026-05-05 20:36 | 41.07900 | -102.99832 | 37036 ft | 438 kts | 240° |
| 2026-05-05 20:36 | 41.06107 | -103.03123 | 36455 ft | 442 kts | 234° |
| 2026-05-05 20:36 | 41.04053 | -103.06177 | 35874 ft | 445 kts | 230° |
| 2026-05-05 20:37 | 41.01912 | -103.09148 | 35276 ft | 445 kts | 230° |
| 2026-05-05 20:37 | 40.99795 | -103.12123 | 34694 ft | 444 kts | 231° |
| 2026-05-05 20:37 | 40.97675 | -103.15104 | 34105 ft | 447 kts | 230° |
| 2026-05-05 20:37 | 40.95521 | -103.18107 | 33472 ft | 451 kts | 230° |
| 2026-05-05 20:38 | 40.93363 | -103.21101 | 32860 ft | 448 kts | 230° |
| 2026-05-05 20:38 | 40.91222 | -103.24080 | 32270 ft | 446 kts | 230° |
| 2026-05-05 20:38 | 40.89094 | -103.27050 | 31686 ft | 444 kts | 230° |
| 2026-05-05 20:38 | 40.86967 | -103.30008 | 31105 ft | 442 kts | 230° |
| 2026-05-05 20:39 | 40.84849 | -103.32945 | 30519 ft | 441 kts | 230° |
| 2026-05-05 20:39 | 40.82735 | -103.35876 | 29909 ft | 439 kts | 230° |
| 2026-05-05 20:39 | 40.80663 | -103.38749 | 29321 ft | 436 kts | 230° |
| 2026-05-05 20:39 | 40.78578 | -103.41635 | 28750 ft | 433 kts | 230° |
| 2026-05-05 20:40 | 40.76504 | -103.44504 | 28190 ft | 433 kts | 230° |
| 2026-05-05 20:40 | 40.74422 | -103.47383 | 27628 ft | 432 kts | 229° |
| 2026-05-05 20:40 | 40.72354 | -103.50235 | 27042 ft | 429 kts | 229° |
| 2026-05-05 20:40 | 40.70279 | -103.53096 | 26495 ft | 431 kts | 230° |
| 2026-05-05 20:41 | 40.68217 | -103.55937 | 25927 ft | 427 kts | 230° |
| 2026-05-05 20:41 | 40.66167 | -103.58759 | 25364 ft | 425 kts | 230° |
| 2026-05-05 20:41 | 40.64130 | -103.61559 | 24802 ft | 422 kts | 230° |
| 2026-05-05 20:41 | 40.62103 | -103.64345 | 24239 ft | 420 kts | 230° |
| 2026-05-05 20:42 | 40.60089 | -103.67109 | 23683 ft | 417 kts | 230° |
| 2026-05-05 20:42 | 40.58060 | -103.69891 | 23092 ft | 414 kts | 230° |
| 2026-05-05 20:42 | 40.56099 | -103.72576 | 22556 ft | 411 kts | 229° |
| 2026-05-05 20:42 | 40.54125 | -103.75278 | 22013 ft | 409 kts | 229° |
| 2026-05-05 20:43 | 40.52161 | -103.77963 | 21479 ft | 406 kts | 229° |
| 2026-05-05 20:43 | 40.50215 | -103.80619 | 20950 ft | 401 kts | 230° |
| 2026-05-05 20:43 | 40.48310 | -103.83214 | 20428 ft | 382 kts | 230° |
| 2026-05-05 20:43 | 40.46529 | -103.85634 | 19934 ft | 355 kts | 230° |
| 2026-05-05 20:44 | 40.44870 | -103.87896 | 19484 ft | 333 kts | 230° |
| 2026-05-05 20:44 | 40.43313 | -103.90022 | 19055 ft | 314 kts | 230° |
| 2026-05-05 20:44 | 40.41833 | -103.92036 | 18650 ft | 301 kts | 230° |
| 2026-05-05 20:44 | 40.40397 | -103.93991 | 18253 ft | 295 kts | 230° |
| 2026-05-05 20:45 | 40.37579 | -103.97823 | 17462 ft | 290 kts | 230° |
| 2026-05-05 20:45 | 40.36181 | -103.99720 | 17081 ft | 289 kts | 229° |
| 2026-05-05 20:45 | 40.34796 | -104.01597 | 17026 ft | 288 kts | 229° |
| 2026-05-05 20:46 | 40.33404 | -104.03485 | 17031 ft | 289 kts | 229° |
| 2026-05-05 20:46 | 40.32008 | -104.05377 | 16998 ft | 290 kts | 229° |
| 2026-05-05 20:46 | 40.30603 | -104.07280 | 16655 ft | 290 kts | 229° |
| 2026-05-05 20:46 | 40.29207 | -104.09168 | 16316 ft | 287 kts | 229° |
| 2026-05-05 20:47 | 40.27820 | -104.11042 | 15988 ft | 286 kts | 228° |
| 2026-05-05 20:47 | 40.26438 | -104.12911 | 15658 ft | 285 kts | 228° |
| 2026-05-05 20:47 | 40.25063 | -104.14767 | 15321 ft | 284 kts | 229° |
| 2026-05-05 20:47 | 40.23688 | -104.16621 | 14999 ft | 283 kts | 229° |
| 2026-05-05 20:48 | 40.22319 | -104.18468 | 14680 ft | 282 kts | 228° |
| 2026-05-05 20:48 | 40.20955 | -104.20307 | 14369 ft | 281 kts | 228° |
| 2026-05-05 20:48 | 40.19594 | -104.22141 | 14049 ft | 280 kts | 227° |
| 2026-05-05 20:48 | 40.18240 | -104.23963 | 13734 ft | 279 kts | 227° |
| 2026-05-05 20:49 | 40.16891 | -104.25777 | 13391 ft | 278 kts | 227° |
| 2026-05-05 20:49 | 40.15543 | -104.27591 | 13043 ft | 278 kts | 226° |
| 2026-05-05 20:49 | 40.14192 | -104.29405 | 12700 ft | 278 kts | 226° |
| 2026-05-05 20:49 | 40.12843 | -104.31217 | 12362 ft | 279 kts | 226° |
| 2026-05-05 20:50 | 40.11489 | -104.33034 | 12030 ft | 279 kts | 226° |
| 2026-05-05 20:50 | 40.10501 | -104.34034 | 11973 ft | 278 kts | 209° |
| 2026-05-05 20:50 | 40.07972 | -104.34825 | 11994 ft | 282 kts | 189° |
| 2026-05-05 20:50 | 40.06009 | -104.35076 | 11990 ft | 284 kts | 187° |
| 2026-05-05 20:51 | 40.04034 | -104.35300 | 11745 ft | 284 kts | 187° |
| 2026-05-05 20:51 | 40.02072 | -104.35526 | 11487 ft | 282 kts | 187° |
| 2026-05-05 20:51 | 40.00120 | -104.35759 | 11226 ft | 282 kts | 187° |
| 2026-05-05 20:51 | 39.98184 | -104.36010 | 10975 ft | 277 kts | 187° |
| 2026-05-05 20:52 | 39.96276 | -104.36279 | 10728 ft | 276 kts | 187° |
| 2026-05-05 20:52 | 39.94367 | -104.36576 | 10486 ft | 277 kts | 187° |
| 2026-05-05 20:52 | 39.92467 | -104.36901 | 10247 ft | 273 kts | 187° |
| 2026-05-05 20:52 | 39.90581 | -104.37253 | 10018 ft | 275 kts | 187° |
| 2026-05-05 20:53 | 39.88695 | -104.37627 | 10008 ft | 274 kts | 187° |
| 2026-05-05 20:53 | 39.86818 | -104.38012 | 10013 ft | 274 kts | 187° |
| 2026-05-05 20:53 | 39.84928 | -104.38399 | 10018 ft | 276 kts | 187° |
| 2026-05-05 20:53 | 39.83034 | -104.38782 | 10020 ft | 275 kts | 187° |
| 2026-05-05 20:54 | 39.81155 | -104.39165 | 10017 ft | 275 kts | 187° |
| 2026-05-05 20:54 | 39.79267 | -104.39549 | 10018 ft | 275 kts | 187° |
| 2026-05-05 20:54 | 39.77377 | -104.39933 | 10020 ft | 274 kts | 187° |
| 2026-05-05 20:54 | 39.75496 | -104.40323 | 10021 ft | 275 kts | 187° |
| 2026-05-05 20:55 | 39.73601 | -104.40716 | 10013 ft | 275 kts | 187° |
| 2026-05-05 20:55 | 39.71714 | -104.41106 | 9833 ft | 275 kts | 187° |
| 2026-05-05 20:55 | 39.69829 | -104.41505 | 9638 ft | 275 kts | 187° |
| 2026-05-05 20:55 | 39.67933 | -104.41909 | 9449 ft | 275 kts | 187° |
| 2026-05-05 20:56 | 39.66053 | -104.42317 | 9260 ft | 273 kts | 187° |
| 2026-05-05 20:56 | 39.64175 | -104.42736 | 9066 ft | 275 kts | 187° |
| 2026-05-05 20:56 | 39.62295 | -104.43150 | 8992 ft | 275 kts | 187° |
| 2026-05-05 20:56 | 39.60418 | -104.43571 | 8994 ft | 276 kts | 187° |
| 2026-05-05 20:57 | 39.58532 | -104.43992 | 8997 ft | 278 kts | 187° |
| 2026-05-05 20:57 | 39.56640 | -104.44408 | 9000 ft | 275 kts | 187° |
| 2026-05-05 20:57 | 39.54768 | -104.44827 | 8986 ft | 273 kts | 187° |
| 2026-05-05 20:57 | 39.52887 | -104.45242 | 8988 ft | 274 kts | 187° |
| 2026-05-05 20:58 | 39.51013 | -104.45649 | 8980 ft | 273 kts | 187° |
| 2026-05-05 20:58 | 39.49139 | -104.46058 | 8978 ft | 274 kts | 187° |
| 2026-05-05 20:58 | 39.47262 | -104.46466 | 8971 ft | 272 kts | 187° |
| 2026-05-05 20:58 | 39.45398 | -104.46875 | 8969 ft | 268 kts | 187° |
| 2026-05-05 20:59 | 39.43585 | -104.47277 | 8967 ft | 271 kts | 188° |
| 2026-05-05 20:59 | 39.41715 | -104.47681 | 8968 ft | 273 kts | 187° |
| 2026-05-05 20:59 | 39.39850 | -104.48092 | 8964 ft | 272 kts | 187° |
| 2026-05-05 20:59 | 39.37976 | -104.48508 | 8959 ft | 276 kts | 187° |
| 2026-05-05 21:00 | 39.36725 | -104.48779 | 8952 ft | 272 kts | 187° |
| 2026-05-05 21:00 | 39.34855 | -104.49189 | 8961 ft | 272 kts | 187° |
| 2026-05-05 21:00 | 39.32989 | -104.49603 | 8964 ft | 268 kts | 188° |
| 2026-05-05 21:00 | 39.31154 | -104.49959 | 8960 ft | 267 kts | 187° |
| 2026-05-05 21:01 | 39.29448 | -104.50802 | 8900 ft | 268 kts | 215° |
| 2026-05-05 21:01 | 39.28239 | -104.53591 | 8904 ft | 275 kts | 257° |
| 2026-05-05 21:01 | 39.28152 | -104.55196 | 8954 ft | 257 kts | 264° |
| 2026-05-05 21:01 | 39.28186 | -104.57395 | 8961 ft | 233 kts | 268° |
| 2026-05-05 21:02 | 39.28236 | -104.59468 | 8950 ft | 231 kts | 267° |
| 2026-05-05 21:02 | 39.28279 | -104.61528 | 8949 ft | 230 kts | 267° |
| 2026-05-05 21:02 | 39.28334 | -104.63587 | 8942 ft | 229 kts | 267° |
| 2026-05-05 21:02 | 39.28399 | -104.65637 | 8943 ft | 229 kts | 267° |
| 2026-05-05 21:03 | 39.28470 | -104.67695 | 8944 ft | 230 kts | 267° |
| 2026-05-05 21:03 | 39.28542 | -104.69751 | 8949 ft | 227 kts | 268° |
| 2026-05-05 21:03 | 39.28596 | -104.71791 | 8947 ft | 228 kts | 267° |
| 2026-05-05 21:03 | 39.28655 | -104.73771 | 8934 ft | 211 kts | 267° |
| 2026-05-05 21:04 | 39.28733 | -104.75637 | 8935 ft | 208 kts | 268° |
| 2026-05-05 21:04 | 39.28796 | -104.77492 | 8937 ft | 207 kts | 267° |
| 2026-05-05 21:04 | 39.28863 | -104.79347 | 8941 ft | 206 kts | 268° |
| 2026-05-05 21:04 | 39.29390 | -104.81089 | 8851 ft | 217 kts | 308° |
| 2026-05-05 21:05 | 39.30679 | -104.82142 | 8930 ft | 219 kts | 335° |
| 2026-05-05 21:05 | 39.32062 | -104.83050 | 8971 ft | 223 kts | 333° |
| 2026-05-05 21:05 | 39.33447 | -104.83917 | 8934 ft | 220 kts | 343° |
| 2026-05-05 21:05 | 39.34952 | -104.84088 | 8953 ft | 218 kts | 2° |
| 2026-05-05 21:06 | 39.36482 | -104.84118 | 8958 ft | 219 kts | 1° |
| 2026-05-05 21:06 | 39.37995 | -104.84195 | 8981 ft | 219 kts | 0° |
| 2026-05-05 21:06 | 39.39505 | -104.84270 | 8983 ft | 213 kts | 0° |
| 2026-05-05 21:06 | 39.40966 | -104.84339 | 8971 ft | 208 kts | 360° |
| 2026-05-05 21:07 | 39.42432 | -104.84406 | 8702 ft | 214 kts | 0° |
| 2026-05-05 21:07 | 39.43886 | -104.84475 | 8396 ft | 200 kts | 1° |
| 2026-05-05 21:07 | 39.45208 | -104.84540 | 8130 ft | 180 kts | 1° |
| 2026-05-05 21:07 | 39.46412 | -104.84600 | 7888 ft | 166 kts | 2° |
| 2026-05-05 21:08 | 39.47518 | -104.84653 | 7672 ft | 160 kts | 3° |
| 2026-05-05 21:08 | 39.48602 | -104.84701 | 7464 ft | 154 kts | 3° |
| 2026-05-05 21:08 | 39.49660 | -104.84750 | 7259 ft | 151 kts | 4° |
| 2026-05-05 21:08 | 39.50702 | -104.84796 | 7038 ft | 147 kts | 4° |
| 2026-05-05 21:09 | 39.51708 | -104.84840 | 6826 ft | 143 kts | 1° |
| 2026-05-05 21:09 | 39.52686 | -104.84886 | 6617 ft | 138 kts | 4° |
| 2026-05-05 21:09 | 39.53646 | -104.84929 | 6398 ft | 135 kts | 2° |
| 2026-05-05 21:09 | 39.54581 | -104.84971 | 6164 ft | 137 kts | 1° |
| 2026-05-05 21:10 | 39.55552 | -104.85017 | 5947 ft | 140 kts | 0° |
| 2026-05-05 21:10 | 39.56481 | -104.85060 | 5871 ft | 118 kts | 358° |
| 2026-05-05 21:10 | 39.57093 | -104.85087 | 5850 ft | 66 kts | 358° |
| 2026-05-05 21:10 | 39.57426 | -104.85100 | 5837 ft | 29 kts | 358° |
| 2026-05-05 21:11 | 39.57614 | -104.85107 | 5827 ft | 25 kts | 3° |
| 2026-05-05 21:11 | 39.57777 | -104.85058 | 5818 ft | 19 kts | 25° |
| 2026-05-05 21:11 | 39.57873 | -104.84993 | 5814 ft | 10 kts | 28° |
| 2026-05-05 21:11 | 39.57906 | -104.84941 | 5814 ft | 6 kts | 87° |
| 2026-05-05 21:12 | 39.57907 | -104.84902 | 5811 ft | 4 kts | 90° |
| 2026-05-05 21:12 | 39.57887 | -104.84884 | 5812 ft | 4 kts | 172° |
| 2026-05-05 21:12 | 39.57858 | -104.84883 | 5818 ft | 3 kts | 179° |
| 2026-05-05 21:12 | 39.57839 | -104.84882 | 5817 ft | 3 kts | 180° |
| 2026-05-05 21:13 | 39.57816 | -104.84878 | 5818 ft | 3 kts | 146° |
| 2026-05-05 21:13 | 39.57813 | -104.84857 | 5816 ft | 2 kts | 91° |
| 2026-05-05 21:13 | 39.57813 | -104.84851 | 5816 ft | 0 kts | 90° |